createdAt,value
2017-10-29T00:00:43.480Z,1001.89
2017-10-29T00:02:36.348Z,1001.95
2017-10-29T00:03:36.301Z,1001.84
2017-10-29T00:05:29.147Z,1001.98
2017-10-29T00:06:29.121Z,1001.50
2017-10-29T00:08:21.990Z,1001.56
2017-10-29T00:09:21.943Z,1001.49
2017-10-29T00:11:14.793Z,1001.64
2017-10-29T00:12:14.765Z,1001.38
2017-10-29T00:14:08.133Z,1001.50
2017-10-29T00:15:08.075Z,1001.48
2017-10-29T00:17:01.412Z,1001.62
2017-10-29T00:18:01.389Z,1001.14
2017-10-29T00:19:54.259Z,1001.24
2017-10-29T00:20:54.213Z,1001.55
2017-10-29T00:22:47.063Z,1001.16
2017-10-29T00:23:47.040Z,1001.25
2017-10-29T00:25:40.904Z,1001.17
2017-10-29T00:26:40.855Z,1001.43
2017-10-29T00:28:34.184Z,1000.92
2017-10-29T00:29:34.163Z,1000.89
2017-10-29T00:31:27.031Z,1000.87
2017-10-29T00:32:26.988Z,1000.69
2017-10-29T00:34:19.828Z,1000.72
2017-10-29T00:35:19.806Z,1000.72
2017-10-29T00:37:13.164Z,1000.63
2017-10-29T00:38:13.119Z,1000.64
2017-10-29T00:40:06.459Z,1000.57
2017-10-29T00:41:06.430Z,1000.71
2017-10-29T00:42:59.310Z,1000.54
2017-10-29T00:43:59.251Z,1000.71
2017-10-29T00:45:52.094Z,1000.23
2017-10-29T00:46:52.070Z,1000.49
2017-10-29T00:48:44.932Z,1000.51
2017-10-29T00:49:44.886Z,1000.46
2017-10-29T00:51:37.731Z,1000.43
2017-10-29T00:52:37.709Z,1000.58
2017-10-29T00:54:30.573Z,1000.46
2017-10-29T00:55:30.528Z,1000.60
2017-10-29T00:57:23.373Z,1000.66
2017-10-29T00:58:23.351Z,1000.48
2017-10-29T01:00:16.714Z,1000.71
2017-10-29T01:01:16.660Z,1001.20
2017-10-29T01:03:09.501Z,1001.08
2017-10-29T01:04:09.477Z,1000.72
2017-10-29T01:06:02.342Z,1000.63
2017-10-29T01:07:02.296Z,1000.50
2017-10-29T01:08:55.137Z,1000.54
2017-10-29T01:09:55.114Z,1000.59
2017-10-29T01:11:47.986Z,1001.33
2017-10-29T01:12:47.938Z,1000.75
2017-10-29T01:14:41.276Z,1000.42
2017-10-29T01:15:41.247Z,1000.53
2017-10-29T01:17:34.118Z,1000.50
2017-10-29T01:18:34.068Z,1000.46
2017-10-29T01:20:26.914Z,1000.58
2017-10-29T01:21:26.887Z,1000.82
2017-10-29T01:23:19.755Z,1000.77
2017-10-29T01:24:19.706Z,1000.61
2017-10-29T01:26:12.550Z,1000.34
2017-10-29T01:27:12.525Z,1000.52
2017-10-29T01:29:05.396Z,1000.26
2017-10-29T01:30:05.351Z,1000.14
2017-10-29T01:31:58.189Z,999.97
2017-10-29T01:32:58.166Z,1000.00
2017-10-29T01:34:51.035Z,1000.24
2017-10-29T01:35:50.987Z,999.98
2017-10-29T01:37:43.834Z,1000.12
2017-10-29T01:38:43.808Z,1000.21
2017-10-29T01:40:36.680Z,999.95
2017-10-29T01:41:36.628Z,999.70
2017-10-29T01:43:29.471Z,999.79
2017-10-29T01:44:29.447Z,999.68
2017-10-29T01:46:22.318Z,999.35
2017-10-29T01:47:22.268Z,999.49
2017-10-29T01:49:15.111Z,999.89
2017-10-29T01:50:15.088Z,999.62
2017-10-29T01:52:07.952Z,999.37
2017-10-29T01:53:07.906Z,998.95
2017-10-29T01:55:00.751Z,999.12
2017-10-29T01:56:00.726Z,999.32
2017-10-29T01:57:53.602Z,998.96
2017-10-29T01:58:53.544Z,999.53
2017-10-29T02:00:46.388Z,999.00
2017-10-29T02:01:46.363Z,999.11
2017-10-29T02:03:39.234Z,998.88
2017-10-29T02:04:39.185Z,998.88
2017-10-29T02:06:32.030Z,999.15
2017-10-29T02:07:32.007Z,999.05
2017-10-29T02:09:25.365Z,998.83
2017-10-29T02:10:25.326Z,998.90
2017-10-29T02:12:18.159Z,999.24
2017-10-29T02:13:18.142Z,999.33
2017-10-29T02:15:11.000Z,998.87
2017-10-29T02:16:10.955Z,999.16
2017-10-29T02:18:03.808Z,998.86
2017-10-29T02:19:03.788Z,998.61
2017-10-29T02:20:56.646Z,998.82
2017-10-29T02:21:56.600Z,998.96
2017-10-29T02:23:49.445Z,998.42
2017-10-29T02:24:49.420Z,998.93
2017-10-29T02:26:42.287Z,998.98
2017-10-29T02:27:42.246Z,998.47
2017-10-29T02:29:35.078Z,998.38
2017-10-29T02:30:35.060Z,998.64
2017-10-29T02:32:27.921Z,999.21
2017-10-29T02:33:27.875Z,998.69
2017-10-29T02:35:21.208Z,998.76
2017-10-29T02:36:21.185Z,998.57
2017-10-29T02:38:14.059Z,998.95
2017-10-29T02:39:14.006Z,998.86
2017-10-29T02:41:06.845Z,998.53
2017-10-29T02:42:06.821Z,998.21
2017-10-29T02:43:59.686Z,998.35
2017-10-29T02:44:59.642Z,999.45
2017-10-29T02:46:52.501Z,998.17
2017-10-29T02:47:52.462Z,998.46
2017-10-29T02:49:45.329Z,998.47
2017-10-29T02:50:45.284Z,998.88
2017-10-29T02:52:38.619Z,998.44
2017-10-29T02:53:38.593Z,998.36
2017-10-29T02:55:31.459Z,998.24
2017-10-29T02:56:31.413Z,998.34
2017-10-29T02:58:24.259Z,998.59
2017-10-29T02:59:24.232Z,998.32
2017-10-29T03:01:17.111Z,998.77
2017-10-29T03:02:17.053Z,998.30
2017-10-29T03:04:09.893Z,998.35
2017-10-29T03:05:09.873Z,998.27
2017-10-29T03:07:02.758Z,998.74
2017-10-29T03:08:02.690Z,998.75
2017-10-29T03:09:55.532Z,998.39
2017-10-29T03:10:55.521Z,998.88
2017-10-29T03:12:48.421Z,998.42
2017-10-29T03:13:48.375Z,998.53
2017-10-29T03:15:41.721Z,998.53
2017-10-29T03:16:41.696Z,998.65
2017-10-29T03:18:35.054Z,998.54
2017-10-29T03:19:35.006Z,999.21
2017-10-29T03:21:28.345Z,999.00
2017-10-29T03:22:28.318Z,998.56
2017-10-29T03:24:21.188Z,998.67
2017-10-29T03:25:21.141Z,998.46
2017-10-29T03:27:15.478Z,998.28
2017-10-29T03:28:15.454Z,998.35
2017-10-29T03:30:08.318Z,998.54
2017-10-29T03:31:08.273Z,998.36
2017-10-29T03:33:01.114Z,998.14
2017-10-29T03:34:01.090Z,998.23
2017-10-29T03:35:53.971Z,998.18
2017-10-29T03:36:53.915Z,998.14
2017-10-29T03:38:46.755Z,998.00
2017-10-29T03:39:46.731Z,999.08
2017-10-29T03:41:39.597Z,998.02
2017-10-29T03:42:39.553Z,998.12
2017-10-29T03:44:32.901Z,998.13
2017-10-29T03:45:32.880Z,997.96
2017-10-29T03:47:25.735Z,998.21
2017-10-29T03:48:25.694Z,998.26
2017-10-29T03:50:18.537Z,998.01
2017-10-29T03:51:18.511Z,998.00
2017-10-29T03:53:11.386Z,998.23
2017-10-29T03:54:11.333Z,997.97
2017-10-29T03:56:04.188Z,998.06
2017-10-29T03:57:04.156Z,998.02
2017-10-29T03:58:57.043Z,997.75
2017-10-29T03:59:56.986Z,997.79
2017-10-29T04:01:50.328Z,997.93
2017-10-29T04:02:50.303Z,997.76
2017-10-29T04:04:43.665Z,997.92
2017-10-29T04:05:43.619Z,997.83
2017-10-29T04:07:36.459Z,997.83
2017-10-29T04:08:36.437Z,998.01
2017-10-29T04:10:29.797Z,997.97
2017-10-29T04:11:29.748Z,998.23
2017-10-29T04:13:22.684Z,997.91
2017-10-29T04:14:22.567Z,997.91
2017-10-29T04:16:15.946Z,997.78
2017-10-29T04:17:15.890Z,997.75
2017-10-29T04:19:08.737Z,997.77
2017-10-29T04:20:08.714Z,997.75
2017-10-29T04:22:02.077Z,997.94
2017-10-29T04:23:02.028Z,997.86
2017-10-29T04:24:55.364Z,997.74
2017-10-29T04:25:55.339Z,998.24
2017-10-29T04:27:48.702Z,997.79
2017-10-29T04:28:48.653Z,997.96
2017-10-29T04:30:41.992Z,997.87
2017-10-29T04:31:41.968Z,997.70
2017-10-29T04:33:35.325Z,997.89
2017-10-29T04:34:35.281Z,997.69
2017-10-29T04:36:28.131Z,997.59
2017-10-29T04:37:28.105Z,997.73
2017-10-29T04:39:20.985Z,997.64
2017-10-29T04:40:20.931Z,997.55
2017-10-29T04:42:14.277Z,997.74
2017-10-29T04:43:14.254Z,997.56
2017-10-29T04:45:07.120Z,997.92
2017-10-29T04:46:07.074Z,997.83
2017-10-29T04:47:59.923Z,997.51
2017-10-29T04:48:59.899Z,997.62
2017-10-29T04:50:53.268Z,997.62
2017-10-29T04:51:53.223Z,997.39
2017-10-29T04:53:46.091Z,997.54
2017-10-29T04:54:46.047Z,997.42
2017-10-29T04:56:38.914Z,997.37
2017-10-29T04:57:38.869Z,997.50
2017-10-29T04:59:32.208Z,997.44
2017-10-29T05:00:32.184Z,997.21
2017-10-29T05:02:25.050Z,997.44
2017-10-29T05:03:25.004Z,997.49
2017-10-29T05:05:17.857Z,997.23
2017-10-29T05:06:17.834Z,997.15
2017-10-29T05:08:10.710Z,997.23
2017-10-29T05:09:10.653Z,997.33
2017-10-29T05:11:03.498Z,997.11
2017-10-29T05:12:03.485Z,997.01
2017-10-29T05:13:56.838Z,997.13
2017-10-29T05:14:56.788Z,996.94
2017-10-29T05:16:49.633Z,997.12
2017-10-29T05:17:49.612Z,997.43
2017-10-29T05:19:42.482Z,997.08
2017-10-29T05:20:42.436Z,997.42
2017-10-29T05:22:35.280Z,997.52
2017-10-29T05:23:35.259Z,997.16
2017-10-29T05:25:28.127Z,997.20
2017-10-29T05:26:28.084Z,997.05
2017-10-29T05:28:21.420Z,997.24
2017-10-29T05:29:21.396Z,997.35
2017-10-29T05:31:14.757Z,996.94
2017-10-29T05:32:14.718Z,997.57
2017-10-29T05:34:08.061Z,997.42
2017-10-29T05:35:08.038Z,996.95
2017-10-29T05:37:00.906Z,997.57
2017-10-29T05:38:00.861Z,997.15
2017-10-29T05:39:53.705Z,997.20
2017-10-29T05:40:53.682Z,996.99
2017-10-29T05:42:46.563Z,997.22
2017-10-29T05:43:46.505Z,997.39
2017-10-29T05:45:39.351Z,997.26
2017-10-29T05:46:39.327Z,997.08
2017-10-29T05:48:32.197Z,997.45
2017-10-29T05:49:32.152Z,996.82
2017-10-29T05:51:25.488Z,997.08
2017-10-29T05:52:25.466Z,997.41
2017-10-29T05:54:18.338Z,996.67
2017-10-29T05:55:18.290Z,996.41
2017-10-29T05:57:11.137Z,996.40
2017-10-29T05:58:11.113Z,996.35
2017-10-29T06:00:03.982Z,996.35
2017-10-29T06:01:03.936Z,996.25
2017-10-29T06:02:56.780Z,996.18
2017-10-29T06:03:56.757Z,996.70
2017-10-29T06:05:50.119Z,996.65
2017-10-29T06:06:50.072Z,996.50
2017-10-29T06:08:42.919Z,996.65
2017-10-29T06:09:42.899Z,996.93
2017-10-29T06:11:35.772Z,996.69
2017-10-29T06:12:35.720Z,996.61
2017-10-29T06:14:28.563Z,996.74
2017-10-29T06:15:28.540Z,996.74
2017-10-29T06:17:21.413Z,996.95
2017-10-29T06:18:21.367Z,997.11
2017-10-29T06:20:14.212Z,997.58
2017-10-29T06:21:14.190Z,997.15
2017-10-29T06:23:07.560Z,997.15
2017-10-29T06:24:07.516Z,996.91
2017-10-29T06:26:00.362Z,996.80
2017-10-29T06:27:00.338Z,996.99
2017-10-29T06:28:53.208Z,997.12
2017-10-29T06:29:53.159Z,997.07
2017-10-29T06:31:46.510Z,997.17
2017-10-29T06:32:46.484Z,996.96
2017-10-29T06:34:39.354Z,997.16
2017-10-29T06:35:39.343Z,997.04
2017-10-29T06:37:32.155Z,997.14
2017-10-29T06:38:32.130Z,997.04
2017-10-29T06:40:25.526Z,996.89
2017-10-29T06:41:25.470Z,997.02
2017-10-29T06:43:18.317Z,997.29
2017-10-29T06:44:18.290Z,997.50
2017-10-29T06:46:11.165Z,996.89
2017-10-29T06:47:11.117Z,997.39
2017-10-29T06:49:03.962Z,997.02
2017-10-29T06:50:03.938Z,997.14
2017-10-29T06:51:56.814Z,997.18
2017-10-29T06:52:56.767Z,997.66
2017-10-29T06:54:50.109Z,997.42
2017-10-29T06:55:50.077Z,997.22
2017-10-29T06:57:42.955Z,997.39
2017-10-29T06:58:42.909Z,997.23
2017-10-29T07:00:35.754Z,997.33
2017-10-29T07:01:35.735Z,996.90
2017-10-29T07:03:28.619Z,997.33
2017-10-29T07:04:28.557Z,997.43
2017-10-29T07:06:21.898Z,997.27
2017-10-29T07:07:21.866Z,997.02
2017-10-29T07:09:14.745Z,997.21
2017-10-29T07:10:14.696Z,997.13
2017-10-29T07:12:08.032Z,997.50
2017-10-29T07:13:08.008Z,997.33
2017-10-29T07:15:00.872Z,997.14
2017-10-29T07:16:00.829Z,997.20
2017-10-29T07:17:53.677Z,997.66
2017-10-29T07:18:53.654Z,997.45
2017-10-29T07:20:46.532Z,997.32
2017-10-29T07:21:46.485Z,997.21
2017-10-29T07:23:39.819Z,997.22
2017-10-29T07:24:39.797Z,997.25
2017-10-29T07:26:32.665Z,997.28
2017-10-29T07:27:32.618Z,997.26
2017-10-29T07:29:25.488Z,997.21
2017-10-29T07:30:25.460Z,997.40
2017-10-29T07:32:18.328Z,997.33
2017-10-29T07:33:18.287Z,997.58
2017-10-29T07:35:11.633Z,997.13
2017-10-29T07:36:11.614Z,997.60
2017-10-29T07:38:04.483Z,997.63
2017-10-29T07:39:04.487Z,997.55
2017-10-29T07:40:57.289Z,997.40
2017-10-29T07:41:57.263Z,997.36
2017-10-29T07:43:50.129Z,997.58
2017-10-29T07:44:50.084Z,997.39
2017-10-29T07:46:42.938Z,997.38
2017-10-29T07:47:42.909Z,997.42
2017-10-29T07:49:36.300Z,997.55
2017-10-29T07:50:36.257Z,997.42
2017-10-29T07:52:29.596Z,997.52
2017-10-29T07:53:29.572Z,997.42
2017-10-29T07:55:22.552Z,997.21
2017-10-29T07:56:22.499Z,997.34
2017-10-29T07:58:15.839Z,997.67
2017-10-29T07:59:15.815Z,998.01
2017-10-29T08:01:09.296Z,997.34
2017-10-29T08:02:09.145Z,997.69
2017-10-29T08:04:01.995Z,997.50
2017-10-29T08:05:01.973Z,997.64
2017-10-29T08:06:54.842Z,997.30
2017-10-29T08:07:54.797Z,997.42
2017-10-29T08:09:47.644Z,997.42
2017-10-29T08:10:47.621Z,997.51
2017-10-29T08:12:40.493Z,997.53
2017-10-29T08:13:40.441Z,997.22
2017-10-29T08:15:33.292Z,998.10
2017-10-29T08:16:33.275Z,997.50
2017-10-29T08:18:26.133Z,997.68
2017-10-29T08:19:26.091Z,997.72
2017-10-29T08:21:19.431Z,998.15
2017-10-29T08:22:19.408Z,997.47
2017-10-29T08:24:12.280Z,997.71
2017-10-29T08:25:12.239Z,997.65
2017-10-29T08:27:05.079Z,997.61
2017-10-29T08:28:05.058Z,997.63
2017-10-29T08:29:57.927Z,997.64
2017-10-29T08:30:57.880Z,997.78
2017-10-29T08:32:50.727Z,997.65
2017-10-29T08:33:50.707Z,997.48
2017-10-29T08:35:43.580Z,997.60
2017-10-29T08:36:43.527Z,997.67
2017-10-29T08:38:36.871Z,997.97
2017-10-29T08:39:36.853Z,997.82
2017-10-29T08:41:29.718Z,997.46
2017-10-29T08:42:29.672Z,997.60
2017-10-29T08:44:23.021Z,997.75
2017-10-29T08:45:23.000Z,997.69
2017-10-29T08:47:15.872Z,997.51
2017-10-29T08:48:15.833Z,997.57
2017-10-29T08:50:10.212Z,997.73
2017-10-29T08:51:10.156Z,997.44
2017-10-29T08:53:03.625Z,997.81
2017-10-29T08:54:03.480Z,997.87
2017-10-29T08:55:56.831Z,997.66
2017-10-29T08:56:56.837Z,998.11
2017-10-29T08:58:50.189Z,998.28
2017-10-29T08:59:50.142Z,997.71
2017-10-29T09:01:42.990Z,998.17
2017-10-29T09:02:42.972Z,997.94
2017-10-29T09:04:36.332Z,997.96
2017-10-29T09:05:36.286Z,997.97
2017-10-29T09:07:29.628Z,998.22
2017-10-29T09:08:29.601Z,998.08
2017-10-29T09:10:22.964Z,997.90
2017-10-29T09:11:22.920Z,997.95
2017-10-29T09:13:16.284Z,998.24
2017-10-29T09:14:16.259Z,998.31
2017-10-29T09:16:09.129Z,997.91
2017-10-29T09:17:09.081Z,998.10
2017-10-29T09:19:02.433Z,998.06
2017-10-29T09:20:02.411Z,998.16
2017-10-29T09:21:55.807Z,998.33
2017-10-29T09:22:55.752Z,998.17
2017-10-29T09:24:49.090Z,998.11
2017-10-29T09:25:49.065Z,998.13
2017-10-29T09:27:42.434Z,998.35
2017-10-29T09:28:42.383Z,998.40
2017-10-29T09:30:35.231Z,998.41
2017-10-29T09:31:35.208Z,998.46
2017-10-29T09:33:28.573Z,998.24
2017-10-29T09:34:28.527Z,998.22
2017-10-29T09:36:21.377Z,998.54
2017-10-29T09:37:21.352Z,998.48
2017-10-29T09:39:14.220Z,998.82
2017-10-29T09:40:14.178Z,998.63
2017-10-29T09:42:07.024Z,998.53
2017-10-29T09:43:07.003Z,998.94
2017-10-29T09:44:59.873Z,998.83
2017-10-29T09:45:59.830Z,998.93
2017-10-29T09:47:53.184Z,999.07
2017-10-29T09:48:53.146Z,999.16
2017-10-29T09:50:46.022Z,999.37
2017-10-29T09:51:45.987Z,999.34
2017-10-29T09:53:39.322Z,999.49
2017-10-29T09:54:39.302Z,999.49
2017-10-29T09:56:32.664Z,999.48
2017-10-29T09:57:32.620Z,999.75
2017-10-29T09:59:25.974Z,999.56
2017-10-29T10:00:25.955Z,999.42
2017-10-29T10:02:18.828Z,999.60
2017-10-29T10:03:18.785Z,999.59
2017-10-29T10:05:12.127Z,999.58
2017-10-29T10:06:12.105Z,999.63
2017-10-29T10:08:05.470Z,999.64
2017-10-29T10:09:05.424Z,999.60
2017-10-29T10:10:58.279Z,999.58
2017-10-29T10:11:58.257Z,999.65
2017-10-29T10:13:51.623Z,999.70
2017-10-29T10:14:51.572Z,999.72
2017-10-29T10:16:44.420Z,999.69
2017-10-29T10:17:44.402Z,999.71
2017-10-29T10:19:37.276Z,999.77
2017-10-29T10:20:37.229Z,999.77
2017-10-29T10:22:30.081Z,999.83
2017-10-29T10:23:30.069Z,999.75
2017-10-29T10:25:22.933Z,999.87
2017-10-29T10:26:22.887Z,999.80
2017-10-29T10:28:15.766Z,999.81
2017-10-29T10:29:15.745Z,999.89
2017-10-29T10:31:08.623Z,999.81
2017-10-29T10:32:08.574Z,999.79
2017-10-29T10:34:01.422Z,999.93
2017-10-29T10:35:01.403Z,999.89
2017-10-29T10:36:54.278Z,999.80
2017-10-29T10:37:54.241Z,999.89
2017-10-29T10:39:47.090Z,999.95
2017-10-29T10:40:47.069Z,999.88
2017-10-29T10:42:39.949Z,999.85
2017-10-29T10:43:39.904Z,999.85
2017-10-29T10:45:32.750Z,999.95
2017-10-29T10:46:32.733Z,999.92
2017-10-29T10:48:25.614Z,999.85
2017-10-29T10:49:25.568Z,999.96
2017-10-29T10:51:18.419Z,999.98
2017-10-29T10:52:18.399Z,999.73
2017-10-29T10:54:11.275Z,999.83
2017-10-29T10:55:11.230Z,999.82
2017-10-29T10:57:04.584Z,999.85
2017-10-29T10:58:04.562Z,999.87
2017-10-29T10:59:57.470Z,999.90
2017-10-29T11:00:57.406Z,999.91
2017-10-29T11:02:50.254Z,999.90
2017-10-29T11:03:50.234Z,999.88
2017-10-29T11:05:43.602Z,999.93
2017-10-29T11:06:43.555Z,1000.00
2017-10-29T11:08:36.912Z,1000.00
2017-10-29T11:09:36.889Z,1000.02
2017-10-29T11:11:29.759Z,1000.09
2017-10-29T11:12:29.719Z,1000.05
2017-10-29T11:14:22.650Z,1000.03
2017-10-29T11:15:22.553Z,999.97
2017-10-29T11:17:15.423Z,999.97
2017-10-29T11:18:15.379Z,1000.04
2017-10-29T11:20:08.229Z,1000.08
2017-10-29T11:21:08.208Z,1000.01
2017-10-29T11:23:01.082Z,1000.08
2017-10-29T11:24:01.037Z,1000.04
2017-10-29T11:25:53.893Z,1000.15
2017-10-29T11:26:53.871Z,1000.10
2017-10-29T11:28:47.245Z,1000.13
2017-10-29T11:29:47.193Z,1000.25
2017-10-29T11:31:40.051Z,1000.19
2017-10-29T11:32:40.035Z,1000.28
2017-10-29T11:34:32.906Z,1000.29
2017-10-29T11:35:32.863Z,1000.27
2017-10-29T11:37:25.719Z,1000.30
2017-10-29T11:38:25.697Z,1000.38
2017-10-29T11:40:18.583Z,1000.40
2017-10-29T11:41:18.538Z,1000.44
2017-10-29T11:43:11.881Z,1000.45
2017-10-29T11:44:11.865Z,1000.45
2017-10-29T11:46:05.265Z,1000.45
2017-10-29T11:47:05.196Z,1000.52
2017-10-29T11:48:58.042Z,1000.57
2017-10-29T11:49:58.022Z,1000.58
2017-10-29T11:51:51.437Z,1000.61
2017-10-29T11:52:51.376Z,1000.60
2017-10-29T11:54:44.245Z,1000.66
2017-10-29T11:55:44.222Z,1000.66
2017-10-29T11:57:37.100Z,1000.68
2017-10-29T11:58:37.059Z,1000.66
2017-10-29T12:00:29.910Z,1000.70
2017-10-29T12:01:29.887Z,1000.70
2017-10-29T12:03:23.256Z,1000.69
2017-10-29T12:04:23.214Z,1000.69
2017-10-29T12:06:16.560Z,1000.74
2017-10-29T12:07:16.541Z,1000.77
2017-10-29T12:09:09.413Z,1000.75
2017-10-29T12:10:09.370Z,1000.80
2017-10-29T12:12:02.221Z,1000.78
2017-10-29T12:13:02.216Z,1000.73
2017-10-29T12:14:55.081Z,1000.74
2017-10-29T12:15:55.035Z,1000.72
2017-10-29T12:17:47.893Z,1000.62
2017-10-29T12:18:47.870Z,1000.67
2017-10-29T12:20:41.246Z,1000.72
2017-10-29T12:21:41.199Z,1000.70
2017-10-29T12:23:34.548Z,1000.76
2017-10-29T12:24:34.553Z,1000.76
2017-10-29T12:26:27.906Z,1000.69
2017-10-29T12:27:27.861Z,1000.70
2017-10-29T12:29:20.722Z,1000.84
2017-10-29T12:30:20.701Z,1000.83
2017-10-29T12:32:14.087Z,1000.79
2017-10-29T12:33:14.035Z,1000.83
2017-10-29T12:35:06.894Z,1000.87
2017-10-29T12:36:06.873Z,1000.90
2017-10-29T12:38:00.255Z,1000.92
2017-10-29T12:39:00.209Z,1000.99
2017-10-29T12:40:53.566Z,1000.92
2017-10-29T12:41:53.545Z,1000.96
2017-10-29T12:43:46.933Z,1000.96
2017-10-29T12:44:46.893Z,1000.93
2017-10-29T12:46:39.753Z,1001.00
2017-10-29T12:47:39.745Z,1001.04
2017-10-29T12:49:33.131Z,1001.11
2017-10-29T12:50:33.087Z,1001.13
2017-10-29T12:52:25.952Z,1001.10
2017-10-29T12:53:25.932Z,1001.11
2017-10-29T12:55:18.824Z,1001.10
2017-10-29T12:56:18.786Z,1001.12
2017-10-29T12:58:11.657Z,1001.11
2017-10-29T12:59:11.638Z,1001.18
2017-10-29T13:01:04.535Z,1001.18
2017-10-29T13:02:04.492Z,1001.20
2017-10-29T13:03:57.361Z,1001.10
2017-10-29T13:04:57.344Z,1001.21
2017-10-29T13:06:50.233Z,1001.17
2017-10-29T13:07:50.197Z,1001.11
2017-10-29T13:09:43.070Z,1001.15
2017-10-29T13:10:43.054Z,1001.18
2017-10-29T13:12:35.947Z,1001.18
2017-10-29T13:13:35.911Z,1001.20
2017-10-29T13:15:28.797Z,1001.25
2017-10-29T13:16:28.784Z,1001.24
2017-10-29T13:18:22.167Z,1001.31
2017-10-29T13:19:22.132Z,1001.34
2017-10-29T13:21:15.504Z,1001.44
2017-10-29T13:22:15.490Z,1001.36
2017-10-29T13:24:08.381Z,1001.49
2017-10-29T13:25:08.344Z,1001.50
2017-10-29T13:27:01.724Z,1001.46
2017-10-29T13:28:01.729Z,1001.50
2017-10-29T13:29:55.094Z,1001.51
2017-10-29T13:30:55.066Z,1001.60
2017-10-29T13:32:48.425Z,1001.63
2017-10-29T13:33:48.418Z,1001.61
2017-10-29T13:35:41.302Z,1001.58
2017-10-29T13:36:41.270Z,1001.57
2017-10-29T13:38:34.133Z,1001.60
2017-10-29T13:39:34.120Z,1001.62
2017-10-29T13:41:27.029Z,1001.62
2017-10-29T13:42:26.995Z,1001.65
2017-10-29T13:44:20.468Z,1001.77
2017-10-29T13:45:20.402Z,1001.60
2017-10-29T13:47:13.897Z,1001.73
2017-10-29T13:48:13.906Z,1001.72
2017-10-29T13:50:07.513Z,1001.83
2017-10-29T13:51:07.237Z,1001.95
2017-10-29T13:53:00.751Z,1001.88
2017-10-29T13:54:00.559Z,1002.00
2017-10-29T13:55:53.689Z,1001.84
2017-10-29T13:56:53.611Z,1001.89
2017-10-29T13:58:47.014Z,1001.96
2017-10-29T13:59:46.972Z,1001.91
2017-10-29T14:01:40.359Z,1001.99
2017-10-29T14:02:40.337Z,1002.07
2017-10-29T14:04:33.740Z,1002.09
2017-10-29T14:05:33.713Z,1002.13
2017-10-29T14:07:28.011Z,1002.18
2017-10-29T14:08:27.983Z,1002.17
2017-10-29T14:10:21.426Z,1002.19
2017-10-29T14:11:21.463Z,1002.17
2017-10-29T14:13:15.596Z,1002.22
2017-10-29T14:14:15.650Z,1002.21
2017-10-29T14:16:09.099Z,1002.36
2017-10-29T14:17:17.626Z,1002.22
2017-10-29T14:19:03.434Z,1002.22
2017-10-29T14:20:03.425Z,1002.20
2017-10-29T14:21:57.777Z,1002.27
2017-10-29T14:22:57.739Z,1002.27
2017-10-29T14:24:51.200Z,1002.44
2017-10-29T14:25:51.145Z,1002.40
2017-10-29T14:27:45.636Z,1002.46
2017-10-29T14:28:45.508Z,1002.43
2017-10-29T14:30:38.928Z,1002.37
2017-10-29T14:31:39.396Z,1002.39
2017-10-29T14:33:32.242Z,1002.50
2017-10-29T14:34:32.186Z,1002.41
2017-10-29T14:36:26.776Z,1002.47
2017-10-29T14:37:26.625Z,1002.53
2017-10-29T14:39:20.604Z,1002.61
2017-10-29T14:40:19.908Z,1002.57
2017-10-29T14:42:13.334Z,1002.67
2017-10-29T14:43:13.402Z,1002.68
2017-10-29T14:45:06.946Z,1002.70
2017-10-29T14:46:06.798Z,1002.74
2017-10-29T14:48:00.303Z,1002.81
2017-10-29T14:49:00.213Z,1002.83
2017-10-29T14:50:54.755Z,1002.85
2017-10-29T14:51:54.679Z,1002.86
2017-10-29T14:53:47.923Z,1002.93
2017-10-29T14:54:47.918Z,1002.91
2017-10-29T14:56:42.490Z,1002.93
2017-10-29T14:57:42.301Z,1003.00
2017-10-29T14:59:36.641Z,1003.01
2017-10-29T15:00:36.672Z,1002.94
2017-10-29T15:02:30.039Z,1003.03
2017-10-29T15:03:30.031Z,1003.01
2017-10-29T15:05:23.413Z,1002.99
2017-10-29T15:06:23.372Z,1002.91
2017-10-29T15:08:17.834Z,1002.94
2017-10-29T15:09:17.774Z,1002.95
2017-10-29T15:11:10.588Z,1003.01
2017-10-29T15:12:10.575Z,1003.03
2017-10-29T15:14:03.977Z,1002.96
2017-10-29T15:15:03.945Z,1002.97
2017-10-29T15:16:57.323Z,1003.03
2017-10-29T15:17:57.305Z,1003.09
2017-10-29T15:19:50.683Z,1003.16
2017-10-29T15:20:50.676Z,1003.16
2017-10-29T15:22:44.039Z,1003.21
2017-10-29T15:23:44.063Z,1003.21
2017-10-29T15:25:37.394Z,1003.16
2017-10-29T15:26:37.374Z,1003.24
2017-10-29T15:28:30.729Z,1003.12
2017-10-29T15:29:30.715Z,1003.17
2017-10-29T15:31:24.170Z,1003.11
2017-10-29T15:32:24.048Z,1003.15
2017-10-29T15:34:17.412Z,1003.18
2017-10-29T15:35:17.396Z,1003.13
2017-10-29T15:37:10.783Z,1003.19
2017-10-29T15:38:11.378Z,1003.20
2017-10-29T15:40:05.115Z,1003.27
2017-10-29T15:41:05.154Z,1003.24
2017-10-29T15:42:59.518Z,1003.22
2017-10-29T15:43:59.465Z,1003.23
2017-10-29T15:45:52.841Z,1003.25
2017-10-29T15:46:52.837Z,1003.28
2017-10-29T15:48:46.239Z,1003.28
2017-10-29T15:49:46.178Z,1003.32
2017-10-29T15:51:39.551Z,1003.27
2017-10-29T15:52:39.541Z,1003.28
2017-10-29T15:54:33.913Z,1003.28
2017-10-29T15:55:33.868Z,1003.29
2017-10-29T15:57:27.233Z,1003.31
2017-10-29T15:58:27.232Z,1003.29
2017-10-29T16:00:20.625Z,1003.37
2017-10-29T16:01:20.582Z,1003.38
2017-10-29T16:03:13.926Z,1003.41
2017-10-29T16:04:13.908Z,1003.44
2017-10-29T16:06:07.283Z,1003.49
2017-10-29T16:07:07.252Z,1003.53
2017-10-29T16:09:00.616Z,1003.56
2017-10-29T16:10:00.595Z,1003.59
2017-10-29T16:11:53.982Z,1003.55
2017-10-29T16:12:53.917Z,1003.58
2017-10-29T16:14:47.303Z,1003.56
2017-10-29T16:15:47.269Z,1003.60
2017-10-29T16:17:40.701Z,1003.66
2017-10-29T16:18:40.612Z,1003.69
2017-10-29T16:20:34.983Z,1003.72
2017-10-29T16:21:34.941Z,1003.80
2017-10-29T16:23:28.347Z,1003.90
2017-10-29T16:24:28.300Z,1003.88
2017-10-29T16:26:21.670Z,1003.91
2017-10-29T16:27:29.333Z,1003.92
2017-10-29T16:29:16.063Z,1003.93
2017-10-29T16:30:16.007Z,1003.98
2017-10-29T16:32:09.386Z,1003.96
2017-10-29T16:33:09.367Z,1004.01
2017-10-29T16:35:03.769Z,1004.04
2017-10-29T16:36:03.691Z,1004.05
2017-10-29T16:37:57.057Z,1004.16
2017-10-29T16:38:57.034Z,1004.18
2017-10-29T16:40:51.443Z,1004.27
2017-10-29T16:41:51.378Z,1004.30
2017-10-29T16:43:44.820Z,1004.32
2017-10-29T16:44:44.714Z,1004.32
2017-10-29T16:46:39.238Z,1004.24
2017-10-29T16:47:39.071Z,1004.28
2017-10-29T16:49:32.422Z,1004.36
2017-10-29T16:50:32.390Z,1004.38
2017-10-29T16:52:26.806Z,1004.37
2017-10-29T16:53:26.785Z,1004.38
2017-10-29T16:55:20.067Z,1004.45
2017-10-29T16:56:20.112Z,1004.47
2017-10-29T16:58:13.441Z,1004.44
2017-10-29T16:59:13.407Z,1004.41
2017-10-29T17:01:06.770Z,1004.43
2017-10-29T17:02:06.735Z,1004.51
2017-10-29T17:04:00.105Z,1004.54
2017-10-29T17:05:00.251Z,1004.63
2017-10-29T17:06:54.671Z,1004.64
2017-10-29T17:07:54.745Z,1004.65
2017-10-29T17:09:48.011Z,1004.67
2017-10-29T17:10:47.949Z,1004.68
2017-10-29T17:12:41.378Z,1004.73
2017-10-29T17:13:41.293Z,1004.77
2017-10-29T17:15:35.664Z,1004.78
2017-10-29T17:16:35.642Z,1004.76
2017-10-29T17:18:29.976Z,1004.77
2017-10-29T17:19:29.966Z,1004.82
2017-10-29T17:21:23.346Z,1004.85
2017-10-29T17:22:23.309Z,1004.87
2017-10-29T17:24:16.662Z,1004.82
2017-10-29T17:25:16.621Z,1004.87
2017-10-29T17:27:10.029Z,1004.93
2017-10-29T17:28:09.987Z,1004.90
2017-10-29T17:30:03.388Z,1004.94
2017-10-29T17:31:03.360Z,1004.96
2017-10-29T17:32:56.772Z,1005.03
2017-10-29T17:33:56.679Z,1005.09
2017-10-29T17:35:51.034Z,1005.11
2017-10-29T17:36:51.001Z,1005.09
2017-10-29T17:38:44.397Z,1005.12
2017-10-29T17:39:44.530Z,1005.09
2017-10-29T17:41:38.699Z,1005.09
2017-10-29T17:42:38.697Z,1005.08
2017-10-29T17:44:32.068Z,1005.08